Terminal Aerodrome Forecast
Issued by NWS

Home | Current Version | Previous Version | Graphics & Text | Print | Product List | Glossary On
Versions: 1 2 3 4 5 6 7 8 9 10 11 12 13 14 15 16 17 18 19 20 21 22 23 24 25 26 27 28 29 30 31 32 33 34 35 36 37 38 39 40 41 42 43 44 45 46 47 48 49 50
000
FTUS43 KLOT 011949 AAA
TAFGYY
TAF AMD
KGYY 011949Z 0120/0218 19011G17KT P6SM FEW250
     FM012100 19015G23KT P6SM FEW250
     FM020400 20014KT P6SM SCT060 BKN250 WS020/20052KT
     FM021100 20014KT 6SM -SHRA VCTS SCT025 BKN040CB WS020/20048KT
     FM021400 21014G19KT P6SM VCSH SCT010 OVC015
     FM021700 23015G23KT 5SM SHRA VCTS BKN012 OVC020CB=

USA.gov is the U.S. government's official web portal to all federal, state and local government web resources and services.